createdAt,value
2022-11-02T00:01:03.081Z,58.13
2022-11-02T00:03:31.096Z,59.27
2022-11-02T00:05:59.052Z,59.03
2022-11-02T00:08:28.404Z,58.43
2022-11-02T00:10:56.464Z,59.10
2022-11-02T00:13:24.524Z,58.07
2022-11-02T00:15:52.540Z,57.87
2022-11-02T00:18:20.833Z,59.50
2022-11-02T00:20:49.255Z,58.43
2022-11-02T00:23:17.422Z,57.87
2022-11-02T00:25:50.030Z,57.63
2022-11-02T00:28:18.148Z,58.37
2022-11-02T00:30:46.879Z,58.40
2022-11-02T00:33:14.834Z,56.67
2022-11-02T00:35:45.066Z,55.87
2022-11-02T00:38:13.132Z,55.17
2022-11-02T00:40:41.131Z,55.53
2022-11-02T00:43:10.503Z,55.93
2022-11-02T00:45:38.674Z,56.60
2022-11-02T00:48:07.538Z,56.57
2022-11-02T00:50:35.733Z,57.23
2022-11-02T00:53:04.466Z,56.03
2022-11-02T00:55:32.467Z,56.37
2022-11-02T00:58:04.506Z,57.90
2022-11-02T01:00:34.119Z,56.07
2022-11-02T01:03:02.552Z,55.93
2022-11-02T01:05:31.162Z,56.10
2022-11-02T01:07:59.237Z,58.47
2022-11-02T01:10:27.761Z,59.87
2022-11-02T01:12:55.697Z,59.43
2022-11-02T01:15:23.740Z,60.13
2022-11-02T01:17:53.620Z,60.97
2022-11-02T01:20:21.702Z,61.80
2022-11-02T01:22:49.637Z,62.27
2022-11-02T01:25:17.828Z,62.60
2022-11-02T01:27:46.109Z,61.77
2022-11-02T01:30:14.972Z,61.53
2022-11-02T01:32:45.009Z,61.60
2022-11-02T01:35:14.419Z,62.77
2022-11-02T01:37:42.394Z,62.10
2022-11-02T01:40:11.526Z,61.67
2022-11-02T01:42:39.660Z,61.70
2022-11-02T01:45:08.618Z,61.80
2022-11-02T01:47:39.695Z,60.33
2022-11-02T01:50:13.360Z,61.33
2022-11-02T01:52:43.405Z,60.90
2022-11-02T01:55:14.872Z,60.63
2022-11-02T01:57:46.815Z,60.47
2022-11-02T02:00:17.522Z,59.33
2022-11-02T02:02:52.549Z,58.97
2022-11-02T02:05:23.678Z,59.60
2022-11-02T02:07:54.807Z,57.93
2022-11-02T02:10:23.146Z,57.97
2022-11-02T02:12:51.514Z,57.23
2022-11-02T02:15:23.205Z,56.00
2022-11-02T02:17:57.099Z,58.17
2022-11-02T02:20:41.242Z,56.97
2022-11-02T02:23:40.158Z,55.50
2022-11-02T02:26:43.339Z,56.17
2022-11-02T02:29:20.549Z,56.50
2022-11-02T02:31:56.866Z,54.93
2022-11-02T02:34:31.029Z,55.00
2022-11-02T02:37:04.884Z,54.83
2022-11-02T02:39:42.069Z,52.77
2022-11-02T02:42:17.347Z,53.30
2022-11-02T02:44:55.823Z,52.57
2022-11-02T02:47:29.152Z,51.87
2022-11-02T02:50:04.788Z,52.10
2022-11-02T02:52:36.021Z,52.03
2022-11-02T02:55:06.886Z,51.53
2022-11-02T02:57:37.391Z,51.90
2022-11-02T03:00:14.413Z,50.53
2022-11-02T03:02:44.779Z,52.07
2022-11-02T03:05:25.197Z,52.87
2022-11-02T03:07:53.996Z,52.07
2022-11-02T03:10:27.195Z,52.87
2022-11-02T03:13:04.597Z,52.23
2022-11-02T03:15:39.539Z,52.30
2022-11-02T03:18:18.564Z,53.83
2022-11-02T03:20:57.151Z,53.93
2022-11-02T03:23:31.465Z,55.37
2022-11-02T03:26:06.548Z,54.80
2022-11-02T03:28:54.660Z,55.33
2022-11-02T03:31:35.033Z,57.70
2022-11-02T03:34:14.796Z,57.17
2022-11-02T03:36:48.015Z,57.53
2022-11-02T03:39:21.197Z,58.80
2022-11-02T03:41:51.232Z,57.90
2022-11-02T03:44:24.968Z,59.37
2022-11-02T03:47:01.111Z,60.03
2022-11-02T03:49:32.038Z,59.67
2022-11-02T03:52:05.783Z,60.43
2022-11-02T03:54:43.778Z,62.83
2022-11-02T03:57:18.778Z,63.00
2022-11-02T03:59:47.251Z,63.53
2022-11-02T04:02:18.447Z,64.43
2022-11-02T04:04:51.850Z,65.57
2022-11-02T04:07:26.706Z,65.23
2022-11-02T04:09:54.789Z,67.27
2022-11-02T04:12:40.160Z,69.40
2022-11-02T04:15:10.664Z,70.63
2022-11-02T04:17:59.701Z,69.57
2022-11-02T04:20:28.192Z,71.53
2022-11-02T04:23:10.025Z,71.57
2022-11-02T04:25:38.148Z,71.57
2022-11-02T04:28:15.682Z,72.30
2022-11-02T04:30:50.409Z,71.63
2022-11-02T04:33:32.883Z,70.80
2022-11-02T04:36:09.930Z,71.70
2022-11-02T04:38:42.602Z,69.70
2022-11-02T04:41:43.104Z,69.60
2022-11-02T04:44:29.390Z,69.73
2022-11-02T04:47:02.666Z,70.77
2022-11-02T04:49:34.738Z,69.27
2022-11-02T04:52:04.350Z,70.67
2022-11-02T04:54:35.004Z,68.90
2022-11-02T04:57:05.352Z,69.60
2022-11-02T04:59:34.424Z,69.67
2022-11-02T05:02:02.581Z,70.07
2022-11-02T05:04:30.740Z,70.03
2022-11-02T05:07:01.800Z,71.00
2022-11-02T05:09:32.434Z,71.83
2022-11-02T05:12:01.993Z,71.50
2022-11-02T05:14:30.049Z,70.40
2022-11-02T05:16:58.808Z,70.63
2022-11-02T05:19:26.949Z,70.60
2022-11-02T05:21:55.221Z,71.77
2022-11-02T05:24:25.834Z,70.13
2022-11-02T05:26:54.092Z,72.67
2022-11-02T05:29:24.832Z,71.90
2022-11-02T05:31:53.823Z,72.97
2022-11-02T05:34:22.201Z,74.23
2022-11-02T05:36:50.890Z,75.80
2022-11-02T05:39:18.968Z,78.80
2022-11-02T05:41:48.861Z,76.53
2022-11-02T05:44:16.831Z,78.13
2022-11-02T05:46:47.179Z,79.10
2022-11-02T05:49:15.112Z,79.90
2022-11-02T05:51:45.046Z,77.10
2022-11-02T05:54:12.990Z,78.73
2022-11-02T05:56:41.109Z,79.77
2022-11-02T05:59:10.417Z,78.90
2022-11-02T06:01:39.122Z,79.17
2022-11-02T06:04:07.410Z,78.20
2022-11-02T06:06:35.354Z,78.80
2022-11-02T06:09:07.123Z,78.87
2022-11-02T06:11:35.707Z,78.17
2022-11-02T06:14:04.407Z,79.83
2022-11-02T06:16:33.806Z,79.47
2022-11-02T06:19:01.813Z,79.60
2022-11-02T06:21:29.852Z,79.03
2022-11-02T06:23:59.022Z,79.93
2022-11-02T06:26:27.139Z,78.80
2022-11-02T06:28:55.077Z,80.33
2022-11-02T06:31:23.155Z,79.13
2022-11-02T06:33:52.455Z,78.17
2022-11-02T06:36:20.426Z,78.73
2022-11-02T06:38:48.426Z,76.83
2022-11-02T06:41:16.395Z,74.97
2022-11-02T06:43:44.468Z,74.70
2022-11-02T06:46:12.409Z,74.37
2022-11-02T06:48:40.341Z,75.50
2022-11-02T06:51:09.805Z,75.87
2022-11-02T06:53:37.775Z,74.20
2022-11-02T06:56:06.154Z,74.03
2022-11-02T06:58:34.083Z,76.40
2022-11-02T07:01:03.925Z,73.70
2022-11-02T07:03:32.463Z,74.63
2022-11-02T07:06:00.765Z,74.23
2022-11-02T07:08:30.096Z,73.53
2022-11-02T07:10:58.891Z,74.40
2022-11-02T07:13:26.994Z,74.03
2022-11-02T07:15:55.920Z,75.97
2022-11-02T07:18:24.098Z,74.33
2022-11-02T07:20:52.342Z,74.47
2022-11-02T07:23:23.858Z,74.27
2022-11-02T07:25:53.420Z,73.37
2022-11-02T07:28:21.456Z,71.40
2022-11-02T07:30:50.349Z,73.90
2022-11-02T07:33:18.348Z,73.40
2022-11-02T07:35:46.311Z,74.33
2022-11-02T07:38:14.284Z,75.30
2022-11-02T07:40:42.386Z,76.07
2022-11-02T07:43:11.865Z,75.17
2022-11-02T07:45:48.207Z,74.87
2022-11-02T07:48:16.187Z,73.87
2022-11-02T07:50:44.219Z,74.57
2022-11-02T07:53:12.305Z,73.43
2022-11-02T07:55:40.759Z,69.97
2022-11-02T07:58:14.122Z,69.57
2022-11-02T08:00:42.533Z,67.90
2022-11-02T08:03:12.760Z,65.30
2022-11-02T08:05:42.569Z,63.47
2022-11-02T08:08:13.788Z,61.73
2022-11-02T08:10:42.679Z,59.57
2022-11-02T08:13:13.482Z,58.47
2022-11-02T08:15:41.530Z,57.47
2022-11-02T08:18:14.386Z,55.20
2022-11-02T08:20:42.991Z,53.50
2022-11-02T08:23:11.799Z,50.67
2022-11-02T08:25:41.258Z,51.33
2022-11-02T08:28:13.332Z,50.97
2022-11-02T08:30:42.714Z,49.47
2022-11-02T08:33:15.588Z,47.47
2022-11-02T08:35:44.896Z,50.07
2022-11-02T08:38:13.759Z,49.63
2022-11-02T08:40:42.106Z,48.00
2022-11-02T08:43:11.663Z,44.73
2022-11-02T08:48:30.416Z,43.47
2022-11-02T08:50:58.661Z,43.33
2022-11-02T08:53:26.811Z,42.57
2022-11-02T08:55:58.261Z,39.90
2022-11-02T08:58:26.746Z,39.17
2022-11-02T09:00:55.593Z,38.60
2022-11-02T09:03:26.789Z,37.07
2022-11-02T09:06:00.907Z,37.70
2022-11-02T09:08:29.476Z,38.37
2022-11-02T09:11:00.819Z,35.20
2022-11-02T09:13:29.431Z,34.50
2022-11-02T09:15:58.997Z,36.07
2022-11-02T09:18:27.552Z,35.00
2022-11-02T09:20:55.575Z,34.63
2022-11-02T09:23:25.231Z,36.47
2022-11-02T09:25:53.677Z,35.17
2022-11-02T09:28:22.221Z,35.00
2022-11-02T09:30:50.292Z,34.50
2022-11-02T09:33:18.485Z,32.90
2022-11-02T09:35:47.801Z,30.93
2022-11-02T09:38:18.486Z,33.10
2022-11-02T09:40:55.708Z,31.33
2022-11-02T09:43:37.542Z,30.80
2022-11-02T09:46:09.028Z,28.40
2022-11-02T09:48:40.864Z,28.10
2022-11-02T09:51:13.127Z,26.20
2022-11-02T09:53:49.730Z,25.43
2022-11-02T09:56:20.907Z,24.63
2022-11-02T09:58:54.541Z,19.97
2022-11-02T10:01:43.362Z,19.00
2022-11-02T10:04:35.470Z,14.43
2022-11-02T10:07:10.303Z,16.52
2022-11-02T10:09:47.955Z,17.67
2022-11-02T10:12:27.937Z,18.33
2022-11-02T10:15:04.143Z,17.15
2022-11-02T10:17:37.475Z,17.23
2022-11-02T10:20:18.900Z,17.48
2022-11-02T10:22:48.727Z,17.60
2022-11-02T10:25:18.391Z,17.77
2022-11-02T10:27:54.845Z,19.98
2022-11-02T10:30:22.833Z,17.73
2022-11-02T10:32:53.886Z,18.90
2022-11-02T10:35:41.040Z,17.95
2022-11-02T10:38:25.992Z,18.07
2022-11-02T10:41:16.109Z,17.88
2022-11-02T10:44:04.412Z,18.00
2022-11-02T10:46:47.705Z,16.98
2022-11-02T10:49:31.001Z,19.75
2022-11-02T10:51:59.054Z,19.67
2022-11-02T10:54:31.010Z,18.38
2022-11-02T10:57:01.672Z,17.95
2022-11-02T10:59:31.103Z,17.45
2022-11-02T11:02:11.035Z,18.48
2022-11-02T11:04:39.077Z,17.90
2022-11-02T11:07:09.977Z,18.23
2022-11-02T11:09:47.253Z,17.73
2022-11-02T11:12:20.917Z,16.40
2022-11-02T11:20:35.445Z,14.45
2022-11-02T11:23:25.396Z,13.95
2022-11-02T11:25:59.389Z,11.20
2022-11-02T11:28:30.667Z,10.38
2022-11-02T11:31:12.199Z,9.18
2022-11-02T11:33:49.551Z,8.10
2022-11-02T11:36:28.973Z,7.90
2022-11-02T11:39:00.041Z,7.82
2022-11-02T11:41:29.111Z,7.78
2022-11-02T11:43:57.311Z,7.00
2022-11-02T11:46:40.487Z,5.97
2022-11-02T11:49:31.105Z,5.68
2022-11-02T11:52:05.348Z,6.47
2022-11-02T11:54:34.225Z,6.22
2022-11-02T11:57:22.468Z,5.45
2022-11-02T11:59:53.133Z,5.82
2022-11-02T12:02:25.610Z,5.38
2022-11-02T12:05:00.757Z,6.22
2022-11-02T12:07:46.848Z,6.00
2022-11-02T12:10:23.769Z,5.78
2022-11-02T12:13:06.465Z,5.30
2022-11-02T12:15:55.554Z,5.75
2022-11-02T12:18:45.970Z,5.55
2022-11-02T12:21:28.376Z,4.85
2022-11-02T12:24:19.371Z,5.35
2022-11-02T12:26:57.475Z,5.60
2022-11-02T12:29:53.633Z,5.43
2022-11-02T12:32:34.377Z,5.57
2022-11-02T12:35:32.819Z,5.60
2022-11-02T12:38:24.439Z,5.15
2022-11-02T12:41:03.099Z,5.38
2022-11-02T12:43:39.869Z,5.53
2022-11-02T12:46:20.943Z,5.47
2022-11-02T12:48:59.583Z,5.38
2022-11-02T12:51:34.399Z,5.13
2022-11-02T12:54:11.339Z,5.32
2022-11-02T12:56:46.655Z,5.75
2022-11-02T12:59:20.978Z,5.25
2022-11-02T13:01:53.124Z,5.43
2022-11-02T13:04:28.130Z,5.00
2022-11-02T13:07:04.465Z,5.57
2022-11-02T13:09:36.889Z,5.05
2022-11-02T13:12:09.515Z,5.32
2022-11-02T13:14:41.702Z,4.93
2022-11-02T13:17:15.971Z,4.45
2022-11-02T13:19:48.716Z,5.43
2022-11-02T13:22:21.470Z,6.03
2022-11-02T13:24:54.729Z,5.47
2022-11-02T13:27:38.582Z,6.43
2022-11-02T13:30:15.536Z,6.35
2022-11-02T13:32:46.676Z,6.60
2022-11-02T13:35:20.037Z,5.97
2022-11-02T13:37:54.588Z,6.47
2022-11-02T13:40:27.540Z,6.32
2022-11-02T13:43:27.627Z,5.88
2022-11-02T13:46:24.869Z,6.50
2022-11-02T13:48:58.931Z,6.70
2022-11-02T13:51:36.020Z,6.82
2022-11-02T13:54:13.987Z,6.60
2022-11-02T13:56:42.733Z,6.95
2022-11-02T13:59:19.553Z,7.35
2022-11-02T14:01:48.038Z,6.63
2022-11-02T14:04:17.348Z,6.70
2022-11-02T14:06:54.219Z,6.20
2022-11-02T14:09:29.241Z,6.20
2022-11-02T14:12:29.568Z,5.95
2022-11-02T14:15:42.410Z,6.43
2022-11-02T14:18:31.193Z,6.53
2022-11-02T14:21:00.368Z,7.07
2022-11-02T14:23:39.104Z,6.78
2022-11-02T14:26:34.647Z,7.32
2022-11-02T14:29:26.779Z,6.93
2022-11-02T14:32:03.580Z,6.82
2022-11-02T14:34:50.519Z,7.38
2022-11-02T14:37:50.208Z,7.25
2022-11-02T14:40:35.619Z,7.47
2022-11-02T14:43:31.664Z,8.38
2022-11-02T14:46:09.706Z,8.93
2022-11-02T14:48:47.205Z,9.05
2022-11-02T14:51:20.560Z,9.43
2022-11-02T14:53:50.792Z,8.43
2022-11-02T14:56:18.872Z,9.05
2022-11-02T14:58:54.979Z,8.52
2022-11-02T15:01:23.799Z,9.00
2022-11-02T15:03:52.529Z,7.90
2022-11-02T15:06:24.123Z,7.88
2022-11-02T15:08:55.413Z,9.00
2022-11-02T15:11:46.132Z,8.43
2022-11-02T15:14:55.135Z,8.43
2022-11-02T15:17:52.771Z,8.20
2022-11-02T15:20:32.694Z,8.73
2022-11-02T15:23:28.709Z,8.75
2022-11-02T15:25:59.918Z,8.82
2022-11-02T15:28:30.777Z,9.30
2022-11-02T15:31:04.000Z,10.18
2022-11-02T15:33:38.201Z,10.18
2022-11-02T15:36:09.213Z,10.57
2022-11-02T15:38:40.289Z,9.90
2022-11-02T15:41:22.965Z,10.60
2022-11-02T15:44:07.765Z,11.43
2022-11-02T15:46:53.676Z,11.35
2022-11-02T15:49:38.221Z,10.93
2022-11-02T15:52:18.585Z,11.80
2022-11-02T15:54:58.312Z,11.60
2022-11-02T15:57:37.418Z,12.23
2022-11-02T16:00:15.974Z,12.15
2022-11-02T16:02:48.138Z,12.63
2022-11-02T16:05:20.920Z,12.80
2022-11-02T16:08:10.021Z,13.02
2022-11-02T16:10:39.138Z,13.38
2022-11-02T16:13:16.980Z,13.90
2022-11-02T16:15:46.530Z,13.37
2022-11-02T16:18:27.638Z,14.07
2022-11-02T16:20:57.376Z,13.80
2022-11-02T16:23:28.051Z,15.10
2022-11-02T16:25:58.544Z,14.73
2022-11-02T16:28:27.957Z,14.85
2022-11-02T16:31:10.046Z,14.63
2022-11-02T16:33:45.461Z,15.03
2022-11-02T16:36:16.981Z,17.10
2022-11-02T16:38:49.560Z,16.53
2022-11-02T16:41:18.033Z,16.37
2022-11-02T16:43:48.062Z,15.93
2022-11-02T16:46:18.102Z,16.57
2022-11-02T16:49:12.877Z,16.23
2022-11-02T16:51:41.391Z,15.83
2022-11-02T16:54:29.608Z,16.93
2022-11-02T16:57:04.946Z,17.23
2022-11-02T16:59:37.079Z,16.80
2022-11-02T17:02:06.513Z,17.57
2022-11-02T17:04:42.249Z,16.70
2022-11-02T17:07:14.056Z,17.40
2022-11-02T17:09:42.305Z,17.33
2022-11-02T17:12:15.299Z,17.77
2022-11-02T17:14:45.618Z,17.50
2022-11-02T17:17:40.184Z,17.60
2022-11-02T17:20:22.130Z,17.43
2022-11-02T17:22:58.923Z,17.93
2022-11-02T17:25:29.319Z,18.17
2022-11-02T17:27:58.856Z,18.60
2022-11-02T17:30:45.550Z,17.77
2022-11-02T17:33:28.871Z,18.10
2022-11-02T17:36:06.407Z,17.47
2022-11-02T17:38:35.228Z,18.00
2022-11-02T17:41:23.480Z,18.70
2022-11-02T17:43:50.672Z,18.77
2022-11-02T17:46:18.692Z,18.83
2022-11-02T17:48:46.668Z,18.87
2022-11-02T17:51:16.377Z,18.87
2022-11-02T17:53:44.397Z,20.30
2022-11-02T17:56:12.428Z,19.03
2022-11-02T17:58:40.755Z,19.60
2022-11-02T18:01:11.686Z,20.63
2022-11-02T18:03:40.009Z,20.80
2022-11-02T18:06:08.446Z,21.27
2022-11-02T18:08:51.888Z,21.67
2022-11-02T18:11:25.785Z,20.80
2022-11-02T18:13:54.494Z,21.97
2022-11-02T18:16:22.538Z,22.47
2022-11-02T18:18:50.516Z,22.03
2022-11-02T18:21:18.528Z,22.17
2022-11-02T18:23:47.921Z,21.90
2022-11-02T18:26:16.222Z,22.70
2022-11-02T18:28:44.239Z,23.27
2022-11-02T18:31:12.210Z,22.77
2022-11-02T18:33:40.227Z,23.47
2022-11-02T18:36:10.267Z,24.43
2022-11-02T18:38:38.672Z,24.53
2022-11-02T18:41:23.111Z,24.33
2022-11-02T18:43:51.055Z,24.60
2022-11-02T18:46:19.263Z,25.37
2022-11-02T18:48:47.471Z,25.37
2022-11-02T18:51:15.596Z,26.17
2022-11-02T18:53:43.587Z,26.73
2022-11-02T18:56:13.316Z,27.33
2022-11-02T18:58:41.295Z,27.47
2022-11-02T19:01:10.614Z,27.57
2022-11-02T19:03:38.913Z,28.67
2022-11-02T19:06:25.073Z,29.03
2022-11-02T19:09:10.407Z,29.83
2022-11-02T19:11:39.888Z,29.93
2022-11-02T19:14:08.596Z,29.73
2022-11-02T19:16:37.077Z,30.47
2022-11-02T19:19:05.420Z,30.47
2022-11-02T19:21:33.428Z,30.63
2022-11-02T19:24:01.621Z,29.93
2022-11-02T19:26:29.593Z,28.87
2022-11-02T19:29:03.055Z,30.60
2022-11-02T19:31:36.426Z,29.77
2022-11-02T19:34:04.546Z,30.53
2022-11-02T19:36:32.836Z,30.53
2022-11-02T19:39:03.392Z,32.37
2022-11-02T19:41:32.159Z,32.67
2022-11-02T19:44:01.647Z,32.07
2022-11-02T19:46:29.762Z,31.63
2022-11-02T19:48:58.400Z,32.20
2022-11-02T19:51:28.379Z,32.87
2022-11-02T19:53:58.316Z,31.83
2022-11-02T19:56:27.646Z,33.83
2022-11-02T19:58:56.955Z,33.57
2022-11-02T20:01:28.179Z,33.47
2022-11-02T20:03:57.104Z,34.53
2022-11-02T20:06:27.293Z,34.20
2022-11-02T20:08:57.045Z,33.63
2022-11-02T20:11:27.207Z,34.53
2022-11-02T20:13:56.960Z,35.73
2022-11-02T20:16:26.953Z,36.60
2022-11-02T20:18:59.096Z,34.53
2022-11-02T20:21:33.481Z,35.00
2022-11-02T20:24:05.603Z,36.20
2022-11-02T20:26:36.468Z,36.23
2022-11-02T20:29:06.918Z,35.60
2022-11-02T20:31:38.051Z,36.50
2022-11-02T20:34:09.077Z,35.90
2022-11-02T20:36:37.123Z,36.07
2022-11-02T20:39:07.584Z,36.40
2022-11-02T20:41:35.625Z,36.20
2022-11-02T20:44:03.916Z,37.50
2022-11-02T20:46:41.974Z,37.23
2022-11-02T20:49:29.319Z,37.10
2022-11-02T20:51:59.893Z,36.10
2022-11-02T20:54:29.877Z,35.83
2022-11-02T20:56:58.191Z,35.40
2022-11-02T20:59:26.361Z,34.50
2022-11-02T21:01:54.483Z,32.70
2022-11-02T21:04:23.876Z,32.33
2022-11-02T21:06:52.136Z,31.13
2022-11-02T21:09:20.646Z,30.37
2022-11-02T21:12:06.390Z,31.30
2022-11-02T21:14:34.511Z,30.83
2022-11-02T21:17:03.241Z,30.83
2022-11-02T21:19:32.615Z,31.37
2022-11-02T21:22:00.837Z,31.60
2022-11-02T21:24:29.643Z,31.00
2022-11-02T21:26:58.041Z,32.73
2022-11-02T21:29:26.035Z,32.23
2022-11-02T21:31:54.055Z,32.97
2022-11-02T21:34:22.045Z,33.40
2022-11-02T21:36:51.499Z,33.30
2022-11-02T21:39:19.543Z,33.27
2022-11-02T21:41:48.255Z,34.03
2022-11-02T21:44:16.308Z,33.40
2022-11-02T21:46:44.367Z,34.30
2022-11-02T21:49:13.100Z,33.83
2022-11-02T21:51:42.624Z,33.97
2022-11-02T21:54:12.009Z,33.70
2022-11-02T21:56:40.092Z,34.07
2022-11-02T21:59:09.499Z,34.07
2022-11-02T22:01:46.873Z,36.97
2022-11-02T22:04:17.288Z,35.77
2022-11-02T22:06:45.408Z,36.63
2022-11-02T22:09:14.987Z,37.67
2022-11-02T22:11:44.938Z,37.83
2022-11-02T22:14:13.955Z,38.73
2022-11-02T22:16:43.799Z,39.23
2022-11-02T22:19:13.572Z,40.53
2022-11-02T22:21:43.147Z,41.40
2022-11-02T22:24:11.363Z,43.50
2022-11-02T22:26:40.963Z,43.63
2022-11-02T22:29:09.580Z,45.10
2022-11-02T22:31:39.704Z,45.73
2022-11-02T22:34:09.151Z,46.17
2022-11-02T22:36:38.429Z,48.23
2022-11-02T22:39:07.380Z,47.63
2022-11-02T22:41:36.652Z,48.90
2022-11-02T22:44:07.983Z,47.40
2022-11-02T22:46:37.831Z,46.27
2022-11-02T22:49:06.790Z,49.13
2022-11-02T22:51:37.083Z,46.87
2022-11-02T22:54:06.944Z,48.63
2022-11-02T22:56:36.011Z,47.23
2022-11-02T22:59:06.287Z,49.17
2022-11-02T23:01:34.660Z,47.33
2022-11-02T23:04:03.114Z,48.13
2022-11-02T23:06:31.352Z,46.90
2022-11-02T23:09:00.335Z,47.97
2022-11-02T23:11:29.760Z,48.40
2022-11-02T23:13:59.750Z,49.47
2022-11-02T23:16:30.794Z,52.13
2022-11-02T23:19:25.218Z,51.73
2022-11-02T23:22:09.885Z,53.10
2022-11-02T23:24:55.192Z,54.77
2022-11-02T23:27:23.268Z,54.40
2022-11-02T23:30:09.109Z,54.80
2022-11-02T23:32:39.186Z,56.90
2022-11-02T23:35:25.488Z,55.87
2022-11-02T23:38:03.296Z,57.23
2022-11-02T23:40:31.889Z,59.00
2022-11-02T23:42:59.873Z,61.63
2022-11-02T23:45:27.855Z,59.97
2022-11-02T23:48:01.373Z,59.17
2022-11-02T23:50:54.093Z,59.87
2022-11-02T23:53:41.278Z,60.43
2022-11-02T23:56:33.466Z,60.97
2022-11-02T23:59:07.815Z,61.80
